Sea Voyager — V7QU2 — position and weather

sailwx.info

Track history (hours):
 
Tides and Currents Weather Stations Pressure Air Temp Water Temp Dewpoint Dewpoint Depression Visibility Wind Speed Wind Dir Waves Ship Positions

Sea Voyager

Last reported at 2015-May-01 13:29 UTC. Time now 2015-May-06 07:26 UTC.
Position N 38°20' E 121°33'.

Length 243 m; draft 12.9 m.

Type: Ship (hazmat cat A). MMSI: 538003439.

Date/timePositionNaut miles runAvg speedWind from/ knotsBaromVisibWave heightAir tempDewpointWater temp
2015-May-01 13:29N 38°20' E 121°33'  
2015-Apr-28 07:31N 40°13' E 121°57'118 7.7
2015-Apr-27 16:09N 38°15' E 122°01'1213.6
2015-Apr-27 15:16N 38°10' E 122°15'4113.2
2015-Apr-27 12:09N 37°56' E 123°05'1112.8
2015-Apr-27 11:18N 37°53' E 123°18'1112.4
2015-Apr-27 10:25N 37°48' E 123°30'42713.2
2015-Apr-26 02:04N 30°41' E 123°57'713.2
2015-Apr-26 01:33N 30°35' E 123°57'2612.9
2015-Apr-25 23:32N 30°09' E 123°52'1412.9
2015-Apr-25 22:28N 29°55' E 123°50'3913.4
2015-Apr-25 19:32N 29°17' E 123°40'1513.7
2015-Apr-25 18:27N 29°03' E 123°36'1313.7
2015-Apr-25 17:30N 28°50' E 123°33'  
Track history (hours):
 
Tides and Currents Weather Stations Pressure Air Temp Water Temp Dewpoint Dewpoint Depression Visibility Wind Speed Wind Dir Waves Ship Positions

Sea Voyager

Last reported at 2015-May-01 13:29 UTC. Time now 2015-May-06 07:26 UTC.
Position N 38°20' E 121°33'.

Length 243 m; draft 12.9 m.

Type: Ship (hazmat cat A). MMSI: 538003439.

Date/timePositionNaut miles runAvg speedWind from/ knotsBaromVisibWave heightAir tempDewpointWater temp
2015-May-01 13:29N 38°20' E 121°33'  
2015-Apr-28 07:31N 40°13' E 121°57'118 7.7
2015-Apr-27 16:09N 38°15' E 122°01'1213.6
2015-Apr-27 15:16N 38°10' E 122°15'4113.2
2015-Apr-27 12:09N 37°56' E 123°05'1112.8
2015-Apr-27 11:18N 37°53' E 123°18'1112.4
2015-Apr-27 10:25N 37°48' E 123°30'42713.2
2015-Apr-26 02:04N 30°41' E 123°57'713.2
2015-Apr-26 01:33N 30°35' E 123°57'2612.9
2015-Apr-25 23:32N 30°09' E 123°52'1412.9
2015-Apr-25 22:28N 29°55' E 123°50'3913.4
2015-Apr-25 19:32N 29°17' E 123°40'1513.7
2015-Apr-25 18:27N 29°03' E 123°36'1313.7
2015-Apr-25 17:30N 28°50' E 123°33'  

Dump ship's entire track history